createdAt,value
2024-02-01T00:00:08.416Z,5.3
2024-02-01T00:01:14.570Z,5.4
2024-02-01T00:02:20.797Z,5.4
2024-02-01T00:03:25.873Z,5.5
2024-02-01T00:04:32.067Z,5.5
2024-02-01T00:05:38.328Z,5.6
2024-02-01T00:06:44.116Z,5.6
2024-02-01T00:07:50.556Z,5.6
2024-02-01T00:08:56.741Z,5.7
2024-02-01T00:10:02.775Z,5.7
2024-02-01T00:11:08.841Z,5.7
2024-02-01T00:12:14.905Z,5.7
2024-02-01T00:13:21.217Z,5.7
2024-02-01T00:14:27.367Z,5.7
2024-02-01T00:15:33.384Z,5.7
2024-02-01T00:16:39.707Z,5.7
2024-02-01T00:17:44.897Z,5.6
2024-02-01T00:18:50.692Z,5.6
2024-02-01T00:19:57.162Z,5.7
2024-02-01T00:21:03.277Z,5.7
2024-02-01T00:22:09.252Z,5.8
2024-02-01T00:23:15.607Z,5.9
2024-02-01T00:24:21.673Z,5.9
2024-02-01T00:25:27.543Z,5.9
2024-02-01T00:26:33.876Z,5.8
2024-02-01T00:27:40.237Z,5.8
2024-02-01T00:28:46.253Z,5.9
2024-02-01T00:29:52.150Z,5.9
2024-02-01T00:30:58.609Z,5.9
2024-02-01T00:32:03.684Z,5.7
2024-02-01T00:33:09.893Z,5.6
2024-02-01T00:34:16.019Z,5.6
2024-02-01T00:35:22.138Z,5.6
2024-02-01T00:36:28.200Z,5.7
2024-02-01T00:37:34.470Z,5.7
2024-02-01T00:38:40.366Z,5.8
2024-02-01T00:39:46.686Z,5.9
2024-02-01T00:40:52.596Z,5.9
2024-02-01T00:41:58.710Z,6
2024-02-01T00:43:05.189Z,6
2024-02-01T00:44:11.003Z,6.1
2024-02-01T00:45:17.144Z,6.1
2024-02-01T00:46:22.511Z,6.2
2024-02-01T00:47:28.499Z,6.2
2024-02-01T00:48:34.736Z,6.2
2024-02-01T00:49:40.929Z,6.2
2024-02-01T00:50:47.119Z,6.2
2024-02-01T00:51:53.355Z,6.1
2024-02-01T00:52:59.459Z,6
2024-02-01T00:54:05.327Z,5.9
2024-02-01T00:55:11.581Z,5.9
2024-02-01T00:56:17.695Z,5.9
2024-02-01T00:57:24.051Z,5.9
2024-02-01T00:58:30.198Z,5.9
2024-02-01T00:59:36.164Z,5.9
2024-02-01T01:00:41.416Z,5.9
2024-02-01T01:01:47.762Z,5.9
2024-02-01T01:02:53.628Z,6
2024-02-01T01:04:00.077Z,6
2024-02-01T01:05:05.888Z,6.1
2024-02-01T01:06:12.256Z,6.2
2024-02-01T01:07:18.478Z,6.2
2024-02-01T01:08:24.640Z,6.2
2024-02-01T01:09:30.825Z,6.1
2024-02-01T01:10:36.868Z,6.1
2024-02-01T01:11:43.104Z,6.1
2024-02-01T01:12:49.079Z,6.2
2024-02-01T01:13:55.284Z,6.2
2024-02-01T01:15:00.299Z,6.2
2024-02-01T01:16:06.664Z,6.3
2024-02-01T01:17:12.780Z,6.3
2024-02-01T01:18:18.876Z,6.3
2024-02-01T01:19:25.044Z,6.3
2024-02-01T01:20:30.926Z,6.3
2024-02-01T01:21:37.219Z,6.3
2024-02-01T01:22:43.407Z,6.3
2024-02-01T01:23:49.337Z,6.3
2024-02-01T01:24:55.788Z,6.2
2024-02-01T01:26:01.691Z,6.2
2024-02-01T01:27:08.036Z,6.2
2024-02-01T01:28:14.110Z,6.2
2024-02-01T01:29:19.328Z,6.2
2024-02-01T01:30:25.528Z,6.2
2024-02-01T01:31:31.666Z,6.3
2024-02-01T01:32:37.656Z,6.3
2024-02-01T01:33:43.865Z,6.3
2024-02-01T01:34:50.085Z,6.3
2024-02-01T01:35:56.231Z,6.3
2024-02-01T01:37:02.381Z,6.3
2024-02-01T01:38:08.442Z,6.3
2024-02-01T01:39:14.365Z,6.3
2024-02-01T01:40:20.536Z,6.3
2024-02-01T01:41:26.906Z,6.3
2024-02-01T01:42:33.183Z,6.3
2024-02-01T01:43:38.290Z,6.3
2024-02-01T01:44:44.420Z,6.2
2024-02-01T01:45:50.526Z,6.2
2024-02-01T01:46:56.765Z,6.2
2024-02-01T01:48:02.881Z,6.2
2024-02-01T01:49:08.951Z,6.1
2024-02-01T01:50:15.167Z,6.1
2024-02-01T01:51:21.263Z,6.1
2024-02-01T01:52:27.319Z,6
2024-02-01T01:53:33.552Z,6
2024-02-01T01:54:39.536Z,6
2024-02-01T01:55:45.804Z,5.9
2024-02-01T01:56:52.045Z,5.9
2024-02-01T01:57:57.141Z,5.9
2024-02-01T01:59:03.155Z,5.8
2024-02-01T02:00:09.453Z,5.8
2024-02-01T02:01:15.324Z,5.7
2024-02-01T02:02:21.739Z,5.7
2024-02-01T02:03:27.963Z,5.7
2024-02-01T02:04:34.004Z,5.6
2024-02-01T02:05:40.114Z,5.6
2024-02-01T02:06:45.980Z,5.5
2024-02-01T02:07:52.434Z,5.5
2024-02-01T02:08:58.645Z,5.5
2024-02-01T02:10:04.451Z,5.6
2024-02-01T02:11:10.554Z,5.6
2024-02-01T02:12:15.996Z,5.6
2024-02-01T02:13:22.050Z,5.6
2024-02-01T02:14:28.299Z,5.6
2024-02-01T02:15:34.437Z,5.6
2024-02-01T02:16:40.373Z,5.7
2024-02-01T02:17:46.727Z,5.7
2024-02-01T02:18:51.683Z,5.7
2024-02-01T02:19:58.098Z,5.7
2024-02-01T02:21:03.934Z,5.7
2024-02-01T02:22:10.299Z,5.7
2024-02-01T02:23:16.437Z,5.8
2024-02-01T02:24:22.638Z,5.8
2024-02-01T02:25:28.769Z,5.8
2024-02-01T02:26:34.825Z,5.7
2024-02-01T02:27:40.738Z,5.7
2024-02-01T02:28:47.236Z,5.7
2024-02-01T02:29:53.318Z,5.6
2024-02-01T02:30:59.452Z,5.6
2024-02-01T02:32:05.373Z,5.6
2024-02-01T02:33:10.496Z,5.6
2024-02-01T02:34:16.913Z,5.6
2024-02-01T02:35:23.044Z,5.6
2024-02-01T02:36:29.058Z,5.6
2024-02-01T02:37:35.151Z,5.6
2024-02-01T02:38:41.360Z,5.6
2024-02-01T02:39:47.366Z,5.6
2024-02-01T02:40:53.632Z,5.6
2024-02-01T02:41:59.797Z,5.7
2024-02-01T02:43:05.871Z,5.7
2024-02-01T02:44:12.244Z,5.8
2024-02-01T02:45:18.268Z,5.9
2024-02-01T02:46:24.569Z,5.9
2024-02-01T02:47:29.380Z,6
2024-02-01T02:48:35.650Z,5.9
2024-02-01T02:49:41.749Z,5.9
2024-02-01T02:50:47.805Z,5.8
2024-02-01T02:51:54.138Z,5.8
2024-02-01T02:53:00.092Z,5.7
2024-02-01T02:54:06.368Z,5.7
2024-02-01T02:55:12.501Z,5.7
2024-02-01T02:56:18.598Z,5.7
2024-02-01T02:57:24.863Z,5.8
2024-02-01T02:58:31.099Z,5.8
2024-02-01T02:59:36.979Z,5.8
2024-02-01T03:00:43.364Z,5.9
2024-02-01T03:01:48.580Z,5.9
2024-02-01T03:02:54.636Z,5.9
2024-02-01T03:04:00.795Z,5.9
2024-02-01T03:05:06.677Z,5.9
2024-02-01T03:06:12.955Z,5.9
2024-02-01T03:07:19.150Z,6
2024-02-01T03:08:25.411Z,6
2024-02-01T03:09:31.364Z,6
2024-02-01T03:10:37.607Z,6
2024-02-01T03:11:43.802Z,6
2024-02-01T03:12:49.684Z,6
2024-02-01T03:13:56.246Z,6
2024-02-01T03:15:02.164Z,6
2024-02-01T03:16:07.428Z,6
2024-02-01T03:17:13.614Z,6.1
2024-02-01T03:18:19.619Z,6.1
2024-02-01T03:19:25.705Z,6.1
2024-02-01T03:20:31.791Z,6.1
2024-02-01T03:21:37.927Z,6.1
2024-02-01T03:22:44.267Z,6.1
2024-02-01T03:23:50.489Z,6.1
2024-02-01T03:24:56.518Z,6.1
2024-02-01T03:26:02.762Z,6.1
2024-02-01T03:27:08.548Z,6.1
2024-02-01T03:28:14.943Z,6.1
2024-02-01T03:29:21.193Z,6.1
2024-02-01T03:30:27.298Z,6.1
2024-02-01T03:31:32.158Z,6.1
2024-02-01T03:32:38.668Z,6.1
2024-02-01T03:33:44.728Z,6.1
2024-02-01T03:34:50.915Z,6.1
2024-02-01T03:35:56.719Z,6.1
2024-02-01T03:37:03.216Z,6.1
2024-02-01T03:38:09.327Z,6.1
2024-02-01T03:39:15.496Z,6.1
2024-02-01T03:40:21.665Z,6.1
2024-02-01T03:41:27.791Z,6.1
2024-02-01T03:42:33.940Z,6.1
2024-02-01T03:43:39.906Z,6.1
2024-02-01T03:44:46.183Z,6.1
2024-02-01T03:45:51.301Z,6.1
2024-02-01T03:46:57.535Z,6
2024-02-01T03:48:03.595Z,6
2024-02-01T03:49:09.849Z,6.1
2024-02-01T03:50:16.100Z,6.1
2024-02-01T03:51:22.164Z,6.1
2024-02-01T03:52:28.327Z,6.1
2024-02-01T03:53:34.417Z,6.1
2024-02-01T03:54:40.612Z,6.1
2024-02-01T03:55:46.476Z,6.1
2024-02-01T03:56:52.869Z,6.1
2024-02-01T03:57:58.974Z,6.2
2024-02-01T03:59:05.245Z,6.2
2024-02-01T04:00:10.342Z,6.2
2024-02-01T04:01:16.171Z,6.3
2024-02-01T04:02:22.633Z,6.3
2024-02-01T04:03:28.728Z,6.3
2024-02-01T04:04:34.927Z,6.4
2024-02-01T04:05:40.997Z,6.4
2024-02-01T04:06:46.972Z,6.4
2024-02-01T04:07:53.359Z,6.4
2024-02-01T04:08:59.313Z,6.4
2024-02-01T04:10:05.624Z,6.4
2024-02-01T04:11:11.793Z,6.5
2024-02-01T04:12:17.916Z,6.5
2024-02-01T04:13:24.147Z,6.5
2024-02-01T04:14:29.242Z,6.5
2024-02-01T04:15:35.449Z,6.5
2024-02-01T04:16:41.547Z,6.5
2024-02-01T04:17:47.332Z,6.5
2024-02-01T04:18:53.864Z,6.5
2024-02-01T04:19:59.656Z,6.5
2024-02-01T04:21:06.067Z,6.5
2024-02-01T04:22:12.238Z,6.5
2024-02-01T04:23:18.279Z,6.5
2024-02-01T04:24:24.523Z,6.5
2024-02-01T04:25:30.721Z,6.5
2024-02-01T04:26:36.702Z,6.5
2024-02-01T04:27:42.918Z,6.5
2024-02-01T04:28:48.057Z,6.5
2024-02-01T04:29:54.245Z,6.5
2024-02-01T04:31:00.397Z,6.5
2024-02-01T04:32:06.505Z,6.5
2024-02-01T04:33:12.493Z,6.5
2024-02-01T04:34:18.497Z,6.5
2024-02-01T04:35:24.655Z,6.5
2024-02-01T04:36:30.966Z,6.5
2024-02-01T04:37:37.126Z,6.5
2024-02-01T04:38:43.394Z,6.5
2024-02-01T04:39:49.624Z,6.5
2024-02-01T04:40:55.638Z,6.5
2024-02-01T04:42:01.851Z,6.5
2024-02-01T04:43:06.988Z,6.5
2024-02-01T04:44:13.112Z,6.5
2024-02-01T04:45:18.934Z,6.5
2024-02-01T04:46:25.384Z,6.5
2024-02-01T04:47:31.572Z,6.5
2024-02-01T04:48:37.397Z,6.5
2024-02-01T04:49:43.796Z,6.5
2024-02-01T04:50:49.666Z,6.5
2024-02-01T04:51:56.072Z,6.5
2024-02-01T04:53:01.997Z,6.5
2024-02-01T04:54:08.506Z,6.5
2024-02-01T04:55:14.563Z,6.5
2024-02-01T04:56:20.831Z,6.5
2024-02-01T04:57:25.728Z,6.5
2024-02-01T04:58:31.997Z,6.5
2024-02-01T04:59:38.112Z,6.5
2024-02-01T05:00:43.977Z,6.5
2024-02-01T05:01:50.268Z,6.5
2024-02-01T05:02:56.265Z,6.5
2024-02-01T05:04:02.506Z,6.5
2024-02-01T05:05:08.765Z,6.5
2024-02-01T05:06:14.847Z,6.5
2024-02-01T05:07:20.828Z,6.5
2024-02-01T05:08:26.084Z,6.5
2024-02-01T05:09:31.268Z,6.5
2024-02-01T05:10:37.573Z,6.5
2024-02-01T05:11:43.460Z,6.5
2024-02-01T05:12:49.607Z,6.5
2024-02-01T05:13:55.881Z,6.5
2024-02-01T05:15:01.876Z,6.5
2024-02-01T05:16:08.023Z,6.4
2024-02-01T05:17:14.533Z,6.4
2024-02-01T05:18:20.303Z,6.4
2024-02-01T05:19:26.783Z,6.4
2024-02-01T05:20:32.655Z,6.4
2024-02-01T05:21:39.105Z,6.4
2024-02-01T05:22:45.186Z,6.4
2024-02-01T05:23:51.248Z,6.4
2024-02-01T05:24:56.450Z,6.4
2024-02-01T05:26:02.741Z,6.4
2024-02-01T05:27:08.753Z,6.4
2024-02-01T05:28:14.812Z,6.5
2024-02-01T05:29:21.116Z,6.5
2024-02-01T05:30:27.198Z,6.5
2024-02-01T05:31:33.063Z,6.4
2024-02-01T05:32:39.208Z,6.4
2024-02-01T05:33:45.642Z,6.4
2024-02-01T05:34:51.492Z,6.4
2024-02-01T05:35:57.895Z,6.5
2024-02-01T05:37:04.094Z,6.4
2024-02-01T05:38:10.285Z,6.5
2024-02-01T05:39:15.355Z,6.5
2024-02-01T05:40:21.420Z,6.5
2024-02-01T05:41:27.695Z,6.5
2024-02-01T05:42:33.858Z,6.4
2024-02-01T05:43:39.779Z,6.4
2024-02-01T05:44:46.147Z,6.5
2024-02-01T05:45:51.962Z,6.5
2024-02-01T05:46:58.367Z,6.4
2024-02-01T05:48:04.292Z,6.4
2024-02-01T05:49:10.529Z,6.4
2024-02-01T05:50:16.875Z,6.4
2024-02-01T05:51:22.634Z,6.4
2024-02-01T05:52:28.900Z,6.4
2024-02-01T05:53:34.239Z,6.4
2024-02-01T05:54:40.442Z,6.4
2024-02-01T05:55:46.485Z,6.4
2024-02-01T05:56:52.641Z,6.4
2024-02-01T05:57:58.616Z,6.4
2024-02-01T05:59:04.993Z,6.4
2024-02-01T06:00:10.141Z,6.4
2024-02-01T06:01:15.964Z,6.4
2024-02-01T06:02:22.391Z,6.4
2024-02-01T06:03:28.392Z,6.4
2024-02-01T06:04:34.713Z,6.4
2024-02-01T06:05:40.700Z,6.4
2024-02-01T06:06:46.838Z,6.4
2024-02-01T06:07:52.821Z,6.4
2024-02-01T06:08:58.986Z,6.4
2024-02-01T06:10:05.187Z,6.4
2024-02-01T06:11:11.265Z,6.4
2024-02-01T06:12:17.497Z,6.5
2024-02-01T06:13:23.541Z,6.5
2024-02-01T06:14:29.764Z,6.5
2024-02-01T06:15:34.847Z,6.4
2024-02-01T06:16:41.232Z,6.4
2024-02-01T06:17:47.122Z,6.4
2024-02-01T06:18:53.323Z,6.4
2024-02-01T06:19:59.736Z,6.4
2024-02-01T06:21:05.916Z,6.4
2024-02-01T06:22:11.989Z,6.4
2024-02-01T06:23:18.112Z,6.4
2024-02-01T06:24:24.297Z,6.4
2024-02-01T06:25:30.468Z,6.4
2024-02-01T06:26:36.554Z,6.4
2024-02-01T06:27:42.764Z,6.4
2024-02-01T06:28:48.853Z,6.4
2024-02-01T06:29:54.036Z,6.5
2024-02-01T06:31:00.204Z,6.5
2024-02-01T06:32:06.203Z,6.5
2024-02-01T06:33:12.500Z,6.5
2024-02-01T06:34:18.570Z,6.5
2024-02-01T06:35:24.496Z,6.5
2024-02-01T06:36:30.877Z,6.5
2024-02-01T06:37:37.052Z,6.5
2024-02-01T06:38:43.023Z,6.5
2024-02-01T06:39:49.350Z,6.5
2024-02-01T06:40:55.284Z,6.5
2024-02-01T06:42:01.655Z,6.5
2024-02-01T06:43:07.749Z,6.4
2024-02-01T06:44:12.958Z,6.4
2024-02-01T06:45:19.057Z,6.4
2024-02-01T06:46:25.252Z,6.4
2024-02-01T06:47:31.321Z,6.4
2024-02-01T06:48:37.423Z,6.4
2024-02-01T06:49:43.633Z,6.4
2024-02-01T06:50:49.771Z,6.4
2024-02-01T06:51:55.979Z,6.4
2024-02-01T06:53:02.122Z,6.3
2024-02-01T06:54:08.248Z,6.3
2024-02-01T06:55:14.399Z,6.3
2024-02-01T06:56:20.493Z,6.3
2024-02-01T06:57:26.627Z,6.3
2024-02-01T06:58:31.493Z,6.3
2024-02-01T06:59:37.968Z,6.3
2024-02-01T07:00:44.100Z,6.3
2024-02-01T07:01:50.255Z,6.3
2024-02-01T07:02:56.319Z,6.3
2024-02-01T07:04:02.518Z,6.3
2024-02-01T07:05:08.588Z,6.3
2024-02-01T07:06:14.846Z,6.3
2024-02-01T07:07:20.950Z,6.3
2024-02-01T07:08:27.070Z,6.3
2024-02-01T07:09:33.228Z,6.2
2024-02-01T07:10:39.354Z,6.2
2024-02-01T07:11:45.515Z,6.2
2024-02-01T07:12:50.652Z,6.2
2024-02-01T07:13:56.805Z,6.2
2024-02-01T07:15:03.001Z,6.2
2024-02-01T07:16:09.121Z,6.2
2024-02-01T07:17:15.263Z,6.2
2024-02-01T07:18:21.082Z,6.2
2024-02-01T07:19:27.368Z,6.2
2024-02-01T07:20:33.640Z,6.2
2024-02-01T07:21:39.832Z,6.2
2024-02-01T07:22:46.003Z,6.2
2024-02-01T07:23:52.016Z,6.2
2024-02-01T07:24:58.304Z,6.2
2024-02-01T07:26:04.457Z,6.2
2024-02-01T07:27:09.464Z,6.2
2024-02-01T07:28:15.703Z,6.3
2024-02-01T07:29:21.872Z,6.3
2024-02-01T07:30:27.953Z,6.3
2024-02-01T07:31:34.124Z,6.3
2024-02-01T07:32:40.041Z,6.4
2024-02-01T07:33:46.357Z,6.4
2024-02-01T07:34:52.573Z,6.4
2024-02-01T07:35:58.631Z,6.5
2024-02-01T07:37:04.829Z,6.5
2024-02-01T07:38:10.993Z,6.5
2024-02-01T07:39:16.921Z,6.5
2024-02-01T07:40:23.134Z,6.5
2024-02-01T07:41:28.476Z,6.6
2024-02-01T07:42:34.613Z,6.6
2024-02-01T07:43:40.701Z,6.6
2024-02-01T07:44:46.762Z,6.6
2024-02-01T07:45:53.049Z,6.7
2024-02-01T07:46:59.210Z,6.7
2024-02-01T07:48:05.039Z,6.7
2024-02-01T07:49:11.430Z,6.7
2024-02-01T07:50:17.658Z,6.7
2024-02-01T07:51:23.671Z,6.7
2024-02-01T07:52:29.872Z,6.7
2024-02-01T07:53:35.970Z,6.7
2024-02-01T07:54:42.179Z,6.8
2024-02-01T07:55:47.321Z,6.8
2024-02-01T07:56:53.447Z,6.8
2024-02-01T07:57:59.669Z,6.8
2024-02-01T07:59:05.676Z,6.8
2024-02-01T08:00:11.842Z,6.8
2024-02-01T08:01:17.979Z,6.8
2024-02-01T08:02:24.266Z,6.8
2024-02-01T08:03:30.190Z,6.9
2024-02-01T08:04:36.229Z,6.9
2024-02-01T08:05:42.634Z,6.9
2024-02-01T08:06:48.701Z,6.9
2024-02-01T08:07:54.884Z,6.9
2024-02-01T08:09:01.013Z,6.9
2024-02-01T08:10:06.173Z,6.9
2024-02-01T08:11:12.385Z,6.9
2024-02-01T08:12:18.527Z,6.9
2024-02-01T08:13:24.591Z,6.9
2024-02-01T08:14:30.470Z,6.9
2024-02-01T08:15:36.943Z,6.9
2024-02-01T08:16:43.048Z,7
2024-02-01T08:17:49.183Z,7
2024-02-01T08:18:55.213Z,7
2024-02-01T08:20:01.392Z,7
2024-02-01T08:21:07.554Z,7
2024-02-01T08:22:13.700Z,7
2024-02-01T08:23:19.902Z,7
2024-02-01T08:24:25.049Z,7
2024-02-01T08:25:31.043Z,7
2024-02-01T08:26:37.149Z,7
2024-02-01T08:27:43.491Z,7
2024-02-01T08:28:49.452Z,7
2024-02-01T08:29:55.794Z,7
2024-02-01T08:31:01.787Z,7
2024-02-01T08:32:07.810Z,7
2024-02-01T08:33:14.235Z,6.9
2024-02-01T08:34:20.343Z,6.9
2024-02-01T08:35:26.460Z,6.9
2024-02-01T08:36:32.674Z,6.9
2024-02-01T08:37:38.809Z,6.9
2024-02-01T08:38:43.932Z,6.9
2024-02-01T08:39:50.019Z,6.9
2024-02-01T08:40:56.238Z,6.9
2024-02-01T08:42:02.067Z,6.9
2024-02-01T08:43:08.218Z,6.9
2024-02-01T08:44:14.393Z,6.9
2024-02-01T08:45:20.501Z,6.9
2024-02-01T08:46:26.710Z,6.9
2024-02-01T08:47:33.014Z,6.9
2024-02-01T08:48:39.104Z,6.9
2024-02-01T08:49:45.277Z,6.9
2024-02-01T08:50:51.447Z,6.9
2024-02-01T08:51:57.535Z,6.9
2024-02-01T08:53:02.537Z,6.9
2024-02-01T08:54:08.874Z,6.9
2024-02-01T08:55:15.020Z,6.9
2024-02-01T08:56:20.963Z,6.9
2024-02-01T08:57:27.140Z,6.9
2024-02-01T08:58:33.400Z,6.9
2024-02-01T08:59:39.653Z,6.9
2024-02-01T09:00:45.587Z,6.9
2024-02-01T09:01:51.864Z,6.9
2024-02-01T09:02:57.864Z,6.9
2024-02-01T09:04:04.211Z,6.8
2024-02-01T09:05:10.272Z,6.8
2024-02-01T09:06:16.337Z,6.8
2024-02-01T09:07:21.425Z,6.8
2024-02-01T09:08:27.683Z,6.8
2024-02-01T09:09:33.702Z,6.8
2024-02-01T09:10:40.129Z,6.8
2024-02-01T09:11:46.004Z,6.8
2024-02-01T09:12:52.448Z,6.9
2024-02-01T09:13:58.302Z,6.8
2024-02-01T09:15:04.651Z,6.8
2024-02-01T09:16:10.834Z,6.8
2024-02-01T09:17:16.847Z,6.8
2024-02-01T09:18:23.018Z,6.8
2024-02-01T09:19:28.959Z,6.8
2024-02-01T09:20:35.345Z,6.8
2024-02-01T09:21:40.412Z,6.8
2024-02-01T09:22:46.721Z,6.9
2024-02-01T09:23:53.005Z,6.9
2024-02-01T09:24:58.838Z,6.9
2024-02-01T09:26:04.946Z,6.9
2024-02-01T09:27:11.169Z,6.9
2024-02-01T09:28:17.400Z,6.9
2024-02-01T09:29:23.338Z,6.9
2024-02-01T09:30:29.535Z,6.9
2024-02-01T09:31:35.832Z,6.9
2024-02-01T09:32:41.771Z,6.9
2024-02-01T09:33:48.242Z,6.9
2024-02-01T09:34:54.314Z,6.8
2024-02-01T09:35:59.520Z,6.8
2024-02-01T09:37:05.471Z,6.8
2024-02-01T09:38:11.770Z,6.8
2024-02-01T09:39:17.960Z,6.8
2024-02-01T09:41:29.873Z,6.7
2024-02-01T09:42:35.328Z,6.7
2024-02-01T09:43:41.561Z,6.7
2024-02-01T09:44:46.471Z,6.7
2024-02-01T09:45:51.883Z,6.7
2024-02-01T09:46:58.004Z,6.7
2024-02-01T09:48:04.021Z,6.7
2024-02-01T09:49:10.142Z,6.7
2024-02-01T09:50:16.369Z,6.7
2024-02-01T09:51:22.529Z,6.7
2024-02-01T09:52:28.469Z,6.7
2024-02-01T09:53:34.497Z,6.7
2024-02-01T09:54:40.980Z,6.6
2024-02-01T09:55:47.099Z,6.6
2024-02-01T09:56:53.252Z,6.6
2024-02-01T09:57:59.176Z,6.7
2024-02-01T09:59:05.532Z,6.7
2024-02-01T10:00:10.674Z,6.7
2024-02-01T10:02:22.819Z,6.7
2024-02-01T10:03:28.819Z,6.7
2024-02-01T10:04:35.129Z,6.7
2024-02-01T10:05:41.318Z,6.7
2024-02-01T10:06:47.481Z,6.7
2024-02-01T10:07:53.729Z,6.7
2024-02-01T10:08:59.715Z,6.7
2024-02-01T10:10:05.879Z,6.7
2024-02-01T10:11:12.136Z,6.7
2024-02-01T10:12:18.258Z,6.7
2024-02-01T10:13:24.373Z,6.7
2024-02-01T10:14:29.600Z,6.7
2024-02-01T10:15:35.584Z,6.7
2024-02-01T10:16:41.689Z,6.7
2024-02-01T10:17:47.758Z,6.7
2024-02-01T10:18:54.151Z,6.7
2024-02-01T10:20:00.293Z,6.7
2024-02-01T10:21:06.436Z,6.7
2024-02-01T10:22:12.560Z,6.7
2024-02-01T10:23:18.587Z,6.8
2024-02-01T10:24:24.915Z,6.8
2024-02-01T10:25:30.695Z,6.8
2024-02-01T10:26:37.084Z,6.9
2024-02-01T10:27:43.281Z,6.9
2024-02-01T10:28:48.437Z,7
2024-02-01T10:29:54.421Z,7
2024-02-01T10:31:00.633Z,7
2024-02-01T10:32:06.678Z,7
2024-02-01T10:33:12.733Z,6.9
2024-02-01T10:34:19.158Z,6.9
2024-02-01T10:35:25.018Z,6.9
2024-02-01T10:36:31.322Z,6.9
2024-02-01T10:37:37.483Z,6.9
2024-02-01T10:38:43.622Z,6.8
2024-02-01T10:39:49.703Z,6.8
2024-02-01T10:40:56.019Z,6.7
2024-02-01T10:42:02.097Z,6.7
2024-02-01T10:43:07.243Z,6.7
2024-02-01T10:44:13.418Z,6.7
2024-02-01T10:45:19.545Z,6.7
2024-02-01T10:46:25.452Z,6.7
2024-02-01T10:47:31.672Z,6.7
2024-02-01T10:48:37.911Z,6.7
2024-02-01T10:49:44.182Z,6.7
2024-02-01T10:50:50.285Z,6.7
2024-02-01T10:51:56.385Z,6.7
2024-02-01T10:53:02.421Z,6.8
2024-02-01T10:54:08.831Z,6.8
2024-02-01T10:55:14.976Z,6.8
2024-02-01T10:56:20.918Z,6.8
2024-02-01T10:57:25.903Z,6.7
2024-02-01T10:58:32.372Z,6.7
2024-02-01T10:59:38.482Z,6.7
2024-02-01T11:00:44.629Z,6.7
2024-02-01T11:01:50.790Z,6.7
2024-02-01T11:02:56.970Z,6.7
2024-02-01T11:04:03.093Z,6.7
2024-02-01T11:05:09.211Z,6.7
2024-02-01T11:06:15.345Z,6.7
2024-02-01T11:07:21.206Z,6.7
2024-02-01T11:08:27.619Z,6.7
2024-02-01T11:09:33.737Z,6.7
2024-02-01T11:10:39.757Z,6.7
2024-02-01T11:11:44.916Z,6.7
2024-02-01T11:12:51.299Z,6.7
2024-02-01T11:13:57.485Z,6.7
2024-02-01T11:15:03.344Z,6.7
2024-02-01T11:16:09.846Z,6.7
2024-02-01T11:17:15.806Z,6.7
2024-02-01T11:18:21.776Z,6.7
2024-02-01T11:19:27.932Z,6.7
2024-02-01T11:20:34.361Z,6.7
2024-02-01T11:21:40.453Z,6.7
2024-02-01T11:22:46.787Z,6.7
2024-02-01T11:23:52.937Z,6.7
2024-02-01T11:24:58.882Z,6.7
2024-02-01T11:26:04.761Z,6.7
2024-02-01T11:27:10.239Z,6.7
2024-02-01T11:28:16.373Z,6.8
2024-02-01T11:29:22.210Z,6.8
2024-02-01T11:30:28.700Z,6.8
2024-02-01T11:31:34.498Z,6.8
2024-02-01T11:32:40.681Z,6.8
2024-02-01T11:33:47.028Z,6.8
2024-02-01T11:34:53.336Z,6.7
2024-02-01T11:35:59.426Z,6.7
2024-02-01T11:37:05.397Z,6.7
2024-02-01T11:38:11.627Z,6.7
2024-02-01T11:39:17.498Z,6.7
2024-02-01T11:40:23.825Z,6.7
2024-02-01T11:41:28.857Z,6.6
2024-02-01T11:42:35.148Z,6.6
2024-02-01T11:43:41.401Z,6.6
2024-02-01T11:44:47.443Z,6.6
2024-02-01T11:45:53.506Z,6.6
2024-02-01T11:46:59.637Z,6.7
2024-02-01T11:48:05.668Z,6.7
2024-02-01T11:49:12.014Z,6.8
2024-02-01T11:50:17.980Z,6.8
2024-02-01T11:51:24.101Z,6.9
2024-02-01T11:52:30.232Z,6.9
2024-02-01T11:53:36.378Z,6.9
2024-02-01T11:54:42.581Z,6.9
2024-02-01T11:55:48.783Z,7
2024-02-01T11:56:53.941Z,7
2024-02-01T11:58:00.294Z,7
2024-02-01T11:59:06.201Z,7
2024-02-01T12:00:12.257Z,7
2024-02-01T12:01:18.525Z,7
2024-02-01T12:02:24.574Z,7.1
2024-02-01T12:03:30.709Z,7.1
2024-02-01T12:04:36.835Z,7.1
2024-02-01T12:05:43.034Z,7.2
2024-02-01T12:06:49.230Z,7.2
2024-02-01T12:07:55.294Z,7.2
2024-02-01T12:09:01.529Z,7.2
2024-02-01T12:10:07.543Z,7.2
2024-02-01T12:11:12.916Z,7.2
2024-02-01T12:12:18.908Z,7.2
2024-02-01T12:13:25.076Z,7.2
2024-02-01T12:14:31.328Z,7.2
2024-02-01T12:15:37.371Z,7.3
2024-02-01T12:16:43.543Z,7.3
2024-02-01T12:17:49.788Z,7.3
2024-02-01T12:18:55.805Z,7.3
2024-02-01T12:20:01.851Z,7.3
2024-02-01T12:21:08.066Z,7.3
2024-02-01T12:22:14.143Z,7.3
2024-02-01T12:23:20.354Z,7.3
2024-02-01T12:24:26.460Z,7.3
2024-02-01T12:25:31.684Z,7.3
2024-02-01T12:26:37.727Z,7.4
2024-02-01T12:27:43.902Z,7.4
2024-02-01T12:28:50.099Z,7.3
2024-02-01T12:29:56.186Z,7.4
2024-02-01T12:31:02.432Z,7.4
2024-02-01T12:32:08.544Z,7.3
2024-02-01T12:33:14.669Z,7.3
2024-02-01T12:34:20.802Z,7.3
2024-02-01T12:35:27.009Z,7.3
2024-02-01T12:36:33.010Z,7.3
2024-02-01T12:37:39.170Z,7.3
2024-02-01T12:38:45.309Z,7.3
2024-02-01T12:39:50.481Z,7.3
2024-02-01T12:40:56.638Z,7.3
2024-02-01T12:42:02.829Z,7.2
2024-02-01T12:43:08.886Z,7.2
2024-02-01T12:44:15.141Z,7.2
2024-02-01T12:46:27.593Z,7.3
2024-02-01T12:47:33.693Z,7.2
2024-02-01T12:48:39.727Z,7.3
2024-02-01T12:49:45.771Z,7.3
2024-02-01T12:50:52.085Z,7.3
2024-02-01T12:51:58.028Z,7.4
2024-02-01T12:53:04.179Z,7.3
2024-02-01T12:54:09.343Z,7.3
2024-02-01T12:55:15.778Z,7.3
2024-02-01T12:56:21.720Z,7.3
2024-02-01T12:57:27.933Z,7.3
2024-02-01T12:58:33.916Z,7.3
2024-02-01T12:59:40.198Z,7.3
2024-02-01T13:00:46.342Z,7.3
2024-02-01T13:01:52.515Z,7.3
2024-02-01T13:02:58.552Z,7.3
2024-02-01T13:04:04.638Z,7.3
2024-02-01T13:05:10.783Z,7.3
2024-02-01T13:06:16.910Z,7.2
2024-02-01T13:07:23.061Z,7.3
2024-02-01T13:08:28.230Z,7.2
2024-02-01T13:09:34.361Z,7.3
2024-02-01T13:10:40.509Z,7.3
2024-02-01T13:11:46.847Z,7.3
2024-02-01T13:12:52.887Z,7.3
2024-02-01T13:13:59.220Z,7.3
2024-02-01T13:15:05.074Z,7.3
2024-02-01T13:16:11.210Z,7.3
2024-02-01T13:17:17.520Z,7.3
2024-02-01T13:18:23.507Z,7.3
2024-02-01T13:19:29.677Z,7.3
2024-02-01T13:20:35.843Z,7.3
2024-02-01T13:21:42.102Z,7.3
2024-02-01T13:22:47.099Z,7.3
2024-02-01T13:23:52.395Z,7.3
2024-02-01T13:24:58.410Z,7.3
2024-02-01T13:26:04.565Z,7.3
2024-02-01T13:27:10.691Z,7.3
2024-02-01T13:28:16.886Z,7.3
2024-02-01T13:29:23.040Z,7.3
2024-02-01T13:30:29.163Z,7.3
2024-02-01T13:31:35.292Z,7.3
2024-02-01T13:32:41.426Z,7.3
2024-02-01T13:33:47.681Z,7.3
2024-02-01T13:34:53.712Z,7.3
2024-02-01T13:35:59.838Z,7.3
2024-02-01T13:37:06.052Z,7.3
2024-02-01T13:38:12.226Z,7.2
2024-02-01T13:39:17.346Z,7.2
2024-02-01T13:40:23.433Z,7.2
2024-02-01T13:41:29.716Z,7.2
2024-02-01T13:42:35.746Z,7.2
2024-02-01T13:43:41.968Z,7.2
2024-02-01T13:44:47.997Z,7.2
2024-02-01T13:45:54.247Z,7.2
2024-02-01T13:47:00.435Z,7.3
2024-02-01T13:48:06.520Z,7.3
2024-02-01T13:49:12.630Z,7.2
2024-02-01T13:50:18.721Z,7.2
2024-02-01T13:51:24.982Z,7.2
2024-02-01T13:52:31.177Z,7.2
2024-02-01T13:53:36.334Z,7.3
2024-02-01T13:55:48.632Z,7.2
2024-02-01T13:56:54.585Z,7.2
2024-02-01T13:58:00.847Z,7.2
2024-02-01T13:59:07.020Z,7.2
2024-02-01T14:00:13.167Z,7.2
2024-02-01T14:01:19.244Z,7.2
2024-02-01T14:02:25.407Z,7.2
2024-02-01T14:03:31.450Z,7.3
2024-02-01T14:04:37.885Z,7.3
2024-02-01T14:05:43.876Z,7.3
2024-02-01T14:06:49.907Z,7.3
2024-02-01T14:07:55.089Z,7.3
2024-02-01T14:10:07.407Z,7.3
2024-02-01T14:11:13.718Z,7.3
2024-02-01T14:12:19.790Z,7.3
2024-02-01T14:13:25.976Z,7.4
2024-02-01T14:14:31.971Z,7.4
2024-02-01T14:15:38.049Z,7.4
2024-02-01T14:16:44.181Z,7.4
2024-02-01T14:17:50.491Z,7.4
2024-02-01T14:20:02.619Z,7.4
2024-02-01T14:21:08.833Z,7.4
2024-02-01T14:22:13.918Z,7.4
2024-02-01T14:23:20.067Z,7.4
2024-02-01T14:24:26.208Z,7.4
2024-02-01T14:25:32.481Z,7.4
2024-02-01T14:26:38.686Z,7.4
2024-02-01T14:27:44.658Z,7.4
2024-02-01T14:28:50.781Z,7.4
2024-02-01T14:29:57.191Z,7.4
2024-02-01T14:31:03.179Z,7.4
2024-02-01T14:32:09.515Z,7.4
2024-02-01T14:33:15.525Z,7.4
2024-02-01T14:34:21.488Z,7.4
2024-02-01T14:35:27.714Z,7.4
2024-02-01T14:36:32.861Z,7.4
2024-02-01T14:37:38.944Z,7.3
2024-02-01T14:38:45.138Z,7.3
2024-02-01T14:39:51.393Z,7.3
2024-02-01T14:40:57.397Z,7.3
2024-02-01T14:42:03.832Z,7.3
2024-02-01T14:43:09.763Z,7.3
2024-02-01T14:44:15.905Z,7.3
2024-02-01T14:45:22.161Z,7.3
2024-02-01T14:46:28.254Z,7.3
2024-02-01T14:47:34.322Z,7.3
2024-02-01T14:48:40.518Z,7.3
2024-02-01T14:49:46.750Z,7.3
2024-02-01T14:50:51.803Z,7.3
2024-02-01T14:53:04.097Z,7.3
2024-02-01T14:54:10.259Z,7.3
2024-02-01T14:55:16.417Z,7.3
2024-02-01T14:56:22.479Z,7.3
2024-02-01T14:57:28.563Z,7.3
2024-02-01T14:58:34.671Z,7.3
2024-02-01T14:59:40.841Z,7.3
2024-02-01T15:00:47.130Z,7.3
2024-02-01T15:01:53.110Z,7.3
2024-02-01T15:02:59.615Z,7.3
2024-02-01T15:04:05.543Z,7.3
2024-02-01T15:05:10.580Z,7.3
2024-02-01T15:06:16.961Z,7.3
2024-02-01T15:07:22.864Z,7.3
2024-02-01T15:08:28.978Z,7.4
2024-02-01T15:09:35.332Z,7.3
2024-02-01T15:10:41.454Z,7.3
2024-02-01T15:11:47.598Z,7.4
2024-02-01T15:12:53.777Z,7.4
2024-02-01T15:13:59.919Z,7.4
2024-02-01T15:15:05.953Z,7.4
2024-02-01T15:16:12.089Z,7.4
2024-02-01T15:17:18.297Z,7.4
2024-02-01T15:18:24.460Z,7.4
2024-02-01T15:19:29.541Z,7.4
2024-02-01T15:20:35.777Z,7.3